sensor_id;sensor_type;location;lat;lon;timestamp;P1;durP1;ratioP1;P2;durP2;ratioP2
50988;SDS011;37008;52.210;21.112;2023-04-06T00:01:07;15.25;;;8.77;;
50988;SDS011;37008;52.210;21.112;2023-04-06T00:03:32;18.95;;;8.38;;
50988;SDS011;37008;52.210;21.112;2023-04-06T00:05:58;16.30;;;9.07;;
50988;SDS011;37008;52.210;21.112;2023-04-06T00:08:25;17.67;;;9.18;;
50988;SDS011;37008;52.210;21.112;2023-04-06T00:10:50;21.95;;;8.80;;
50988;SDS011;37008;52.210;21.112;2023-04-06T00:13:16;20.98;;;8.93;;
50988;SDS011;37008;52.210;21.112;2023-04-06T00:15:42;19.38;;;10.70;;
50988;SDS011;37008;52.210;21.112;2023-04-06T00:18:07;17.10;;;8.32;;
50988;SDS011;37008;52.210;21.112;2023-04-06T00:20:33;17.00;;;8.82;;
50988;SDS011;37008;52.210;21.112;2023-04-06T00:22:58;17.38;;;9.35;;
50988;SDS011;37008;52.210;21.112;2023-04-06T00:25:24;22.42;;;9.25;;
50988;SDS011;37008;52.210;21.112;2023-04-06T00:27:50;20.83;;;8.75;;
50988;SDS011;37008;52.210;21.112;2023-04-06T00:30:16;17.58;;;9.32;;
50988;SDS011;37008;52.210;21.112;2023-04-06T00:32:41;22.15;;;9.85;;
50988;SDS011;37008;52.210;21.112;2023-04-06T00:35:07;27.20;;;9.30;;
50988;SDS011;37008;52.210;21.112;2023-04-06T00:37:33;20.65;;;9.50;;
50988;SDS011;37008;52.210;21.112;2023-04-06T00:39:58;18.13;;;10.20;;
50988;SDS011;37008;52.210;21.112;2023-04-06T00:42:24;19.27;;;9.50;;
50988;SDS011;37008;52.210;21.112;2023-04-06T00:44:57;17.88;;;9.30;;
50988;SDS011;37008;52.210;21.112;2023-04-06T00:47:24;25.92;;;10.85;;
50988;SDS011;37008;52.210;21.112;2023-04-06T00:49:51;19.45;;;9.52;;
50988;SDS011;37008;52.210;21.112;2023-04-06T00:52:17;18.10;;;8.77;;
50988;SDS011;37008;52.210;21.112;2023-04-06T00:54:43;17.33;;;9.70;;
50988;SDS011;37008;52.210;21.112;2023-04-06T00:57:09;18.02;;;9.25;;
50988;SDS011;37008;52.210;21.112;2023-04-06T00:59:38;14.25;;;8.50;;
50988;SDS011;37008;52.210;21.112;2023-04-06T01:02:05;22.65;;;9.10;;
50988;SDS011;37008;52.210;21.112;2023-04-06T01:04:31;14.35;;;8.05;;
50988;SDS011;37008;52.210;21.112;2023-04-06T01:06:57;14.63;;;8.32;;
50988;SDS011;37008;52.210;21.112;2023-04-06T01:09:23;16.48;;;7.80;;
50988;SDS011;37008;52.210;21.112;2023-04-06T01:11:48;15.05;;;7.07;;
50988;SDS011;37008;52.210;21.112;2023-04-06T01:14:14;12.55;;;6.93;;
50988;SDS011;37008;52.210;21.112;2023-04-06T01:16:40;17.17;;;7.40;;
50988;SDS011;37008;52.210;21.112;2023-04-06T01:19:09;14.45;;;7.57;;
50988;SDS011;37008;52.210;21.112;2023-04-06T01:21:36;12.52;;;6.30;;
50988;SDS011;37008;52.210;21.112;2023-04-06T01:24:02;13.30;;;6.28;;
50988;SDS011;37008;52.210;21.112;2023-04-06T01:26:29;11.35;;;6.18;;
50988;SDS011;37008;52.210;21.112;2023-04-06T01:28:55;17.92;;;6.72;;
50988;SDS011;37008;52.210;21.112;2023-04-06T01:31:21;13.32;;;6.78;;
50988;SDS011;37008;52.210;21.112;2023-04-06T01:33:47;17.13;;;5.75;;
50988;SDS011;37008;52.210;21.112;2023-04-06T01:36:13;14.75;;;6.72;;
50988;SDS011;37008;52.210;21.112;2023-04-06T01:38:39;11.82;;;6.07;;
50988;SDS011;37008;52.210;21.112;2023-04-06T01:41:06;16.58;;;5.85;;
50988;SDS011;37008;52.210;21.112;2023-04-06T01:43:32;11.75;;;5.43;;
50988;SDS011;37008;52.210;21.112;2023-04-06T01:45:57;9.90;;;5.30;;
50988;SDS011;37008;52.210;21.112;2023-04-06T01:48:23;11.45;;;5.90;;
50988;SDS011;37008;52.210;21.112;2023-04-06T01:50:49;8.77;;;4.88;;
50988;SDS011;37008;52.210;21.112;2023-04-06T01:53:14;10.80;;;5.32;;
50988;SDS011;37008;52.210;21.112;2023-04-06T01:55:40;12.65;;;5.07;;
50988;SDS011;37008;52.210;21.112;2023-04-06T01:58:06;7.95;;;4.10;;
50988;SDS011;37008;52.210;21.112;2023-04-06T02:00:31;9.80;;;4.40;;
50988;SDS011;37008;52.210;21.112;2023-04-06T02:02:57;9.70;;;5.07;;
50988;SDS011;37008;52.210;21.112;2023-04-06T02:05:22;11.35;;;5.45;;
50988;SDS011;37008;52.210;21.112;2023-04-06T02:07:48;12.13;;;5.45;;
50988;SDS011;37008;52.210;21.112;2023-04-06T02:10:14;11.00;;;5.32;;
50988;SDS011;37008;52.210;21.112;2023-04-06T02:12:40;12.45;;;6.22;;
50988;SDS011;37008;52.210;21.112;2023-04-06T02:15:06;13.35;;;5.50;;
50988;SDS011;37008;52.210;21.112;2023-04-06T02:17:32;11.45;;;5.68;;
50988;SDS011;37008;52.210;21.112;2023-04-06T02:19:57;11.30;;;5.63;;
50988;SDS011;37008;52.210;21.112;2023-04-06T02:22:23;13.98;;;6.20;;
50988;SDS011;37008;52.210;21.112;2023-04-06T02:24:49;13.23;;;7.28;;
50988;SDS011;37008;52.210;21.112;2023-04-06T02:27:14;11.23;;;5.78;;
50988;SDS011;37008;52.210;21.112;2023-04-06T02:29:40;14.85;;;6.15;;
50988;SDS011;37008;52.210;21.112;2023-04-06T02:32:06;13.90;;;6.72;;
50988;SDS011;37008;52.210;21.112;2023-04-06T02:34:32;13.50;;;6.72;;
50988;SDS011;37008;52.210;21.112;2023-04-06T02:36:57;11.23;;;5.82;;
50988;SDS011;37008;52.210;21.112;2023-04-06T02:39:23;13.73;;;6.50;;
50988;SDS011;37008;52.210;21.112;2023-04-06T02:41:49;17.27;;;6.70;;
50988;SDS011;37008;52.210;21.112;2023-04-06T02:44:14;11.93;;;6.70;;
50988;SDS011;37008;52.210;21.112;2023-04-06T02:46:40;16.65;;;7.57;;
50988;SDS011;37008;52.210;21.112;2023-04-06T02:49:05;15.75;;;7.50;;
50988;SDS011;37008;52.210;21.112;2023-04-06T02:51:31;11.60;;;5.78;;
50988;SDS011;37008;52.210;21.112;2023-04-06T02:53:58;10.65;;;6.05;;
50988;SDS011;37008;52.210;21.112;2023-04-06T02:56:23;18.67;;;7.82;;
50988;SDS011;37008;52.210;21.112;2023-04-06T02:58:49;16.30;;;7.45;;
50988;SDS011;37008;52.210;21.112;2023-04-06T03:01:15;18.50;;;7.00;;
50988;SDS011;37008;52.210;21.112;2023-04-06T03:03:41;17.05;;;8.20;;
50988;SDS011;37008;52.210;21.112;2023-04-06T03:06:06;17.23;;;8.60;;
50988;SDS011;37008;52.210;21.112;2023-04-06T03:08:32;19.48;;;8.48;;
50988;SDS011;37008;52.210;21.112;2023-04-06T03:10:57;22.38;;;9.60;;
50988;SDS011;37008;52.210;21.112;2023-04-06T03:13:23;20.15;;;8.07;;
50988;SDS011;37008;52.210;21.112;2023-04-06T03:15:48;19.88;;;8.18;;
50988;SDS011;37008;52.210;21.112;2023-04-06T03:18:14;18.58;;;8.90;;
50988;SDS011;37008;52.210;21.112;2023-04-06T03:20:40;14.90;;;7.45;;
50988;SDS011;37008;52.210;21.112;2023-04-06T03:23:05;18.55;;;8.50;;
50988;SDS011;37008;52.210;21.112;2023-04-06T03:25:31;14.90;;;7.13;;
50988;SDS011;37008;52.210;21.112;2023-04-06T03:27:57;26.75;;;6.90;;
50988;SDS011;37008;52.210;21.112;2023-04-06T03:30:22;16.77;;;8.15;;
50988;SDS011;37008;52.210;21.112;2023-04-06T03:32:48;15.35;;;7.82;;
50988;SDS011;37008;52.210;21.112;2023-04-06T03:35:13;14.93;;;7.82;;
50988;SDS011;37008;52.210;21.112;2023-04-06T03:37:39;16.48;;;7.65;;
50988;SDS011;37008;52.210;21.112;2023-04-06T03:40:05;17.98;;;7.75;;
50988;SDS011;37008;52.210;21.112;2023-04-06T03:42:31;17.65;;;8.13;;
50988;SDS011;37008;52.210;21.112;2023-04-06T03:44:57;18.33;;;8.10;;
50988;SDS011;37008;52.210;21.112;2023-04-06T03:47:23;14.40;;;6.88;;
50988;SDS011;37008;52.210;21.112;2023-04-06T03:49:49;16.02;;;6.72;;
50988;SDS011;37008;52.210;21.112;2023-04-06T03:52:15;15.25;;;7.15;;
50988;SDS011;37008;52.210;21.112;2023-04-06T03:54:40;19.02;;;7.65;;
50988;SDS011;37008;52.210;21.112;2023-04-06T03:57:06;14.88;;;6.80;;
50988;SDS011;37008;52.210;21.112;2023-04-06T03:59:31;11.45;;;6.63;;
50988;SDS011;37008;52.210;21.112;2023-04-06T04:01:57;16.02;;;7.15;;
50988;SDS011;37008;52.210;21.112;2023-04-06T04:04:22;16.35;;;6.97;;
50988;SDS011;37008;52.210;21.112;2023-04-06T04:06:48;17.55;;;7.35;;
50988;SDS011;37008;52.210;21.112;2023-04-06T04:09:14;14.85;;;7.18;;
50988;SDS011;37008;52.210;21.112;2023-04-06T04:11:40;17.42;;;7.13;;
50988;SDS011;37008;52.210;21.112;2023-04-06T04:14:05;18.80;;;7.85;;
50988;SDS011;37008;52.210;21.112;2023-04-06T04:16:31;17.67;;;7.35;;
50988;SDS011;37008;52.210;21.112;2023-04-06T04:18:56;14.85;;;7.78;;
50988;SDS011;37008;52.210;21.112;2023-04-06T04:21:23;17.15;;;8.18;;
50988;SDS011;37008;52.210;21.112;2023-04-06T04:23:50;14.20;;;6.97;;
50988;SDS011;37008;52.210;21.112;2023-04-06T04:26:17;16.63;;;8.00;;
50988;SDS011;37008;52.210;21.112;2023-04-06T04:28:43;15.27;;;7.45;;
50988;SDS011;37008;52.210;21.112;2023-04-06T04:31:08;16.42;;;7.15;;
50988;SDS011;37008;52.210;21.112;2023-04-06T04:33:34;17.05;;;7.90;;
50988;SDS011;37008;52.210;21.112;2023-04-06T04:36:00;15.45;;;7.90;;
50988;SDS011;37008;52.210;21.112;2023-04-06T04:38:25;18.73;;;8.18;;
50988;SDS011;37008;52.210;21.112;2023-04-06T04:40:51;14.23;;;7.15;;
50988;SDS011;37008;52.210;21.112;2023-04-06T04:43:16;14.13;;;7.43;;
50988;SDS011;37008;52.210;21.112;2023-04-06T04:45:42;13.05;;;6.60;;
50988;SDS011;37008;52.210;21.112;2023-04-06T04:48:08;20.95;;;7.10;;
50988;SDS011;37008;52.210;21.112;2023-04-06T04:50:33;11.93;;;6.30;;
50988;SDS011;37008;52.210;21.112;2023-04-06T04:52:59;14.45;;;7.53;;
50988;SDS011;37008;52.210;21.112;2023-04-06T04:55:24;15.07;;;6.50;;
50988;SDS011;37008;52.210;21.112;2023-04-06T04:57:51;12.98;;;6.50;;
50988;SDS011;37008;52.210;21.112;2023-04-06T05:00:16;16.05;;;6.55;;
50988;SDS011;37008;52.210;21.112;2023-04-06T05:02:42;12.65;;;5.47;;
50988;SDS011;37008;52.210;21.112;2023-04-06T05:05:08;17.30;;;7.00;;
50988;SDS011;37008;52.210;21.112;2023-04-06T05:07:34;14.80;;;6.35;;
50988;SDS011;37008;52.210;21.112;2023-04-06T05:09:59;14.05;;;6.82;;
50988;SDS011;37008;52.210;21.112;2023-04-06T05:12:25;14.65;;;6.55;;
50988;SDS011;37008;52.210;21.112;2023-04-06T05:14:52;13.43;;;6.05;;
50988;SDS011;37008;52.210;21.112;2023-04-06T05:17:18;16.63;;;6.30;;
50988;SDS011;37008;52.210;21.112;2023-04-06T05:19:44;14.73;;;7.18;;
50988;SDS011;37008;52.210;21.112;2023-04-06T05:22:10;13.18;;;6.15;;
50988;SDS011;37008;52.210;21.112;2023-04-06T05:24:36;18.10;;;6.50;;
50988;SDS011;37008;52.210;21.112;2023-04-06T05:27:02;13.73;;;6.70;;
50988;SDS011;37008;52.210;21.112;2023-04-06T05:29:27;17.80;;;6.60;;
50988;SDS011;37008;52.210;21.112;2023-04-06T05:31:54;15.25;;;5.72;;
50988;SDS011;37008;52.210;21.112;2023-04-06T05:34:19;14.05;;;5.30;;
50988;SDS011;37008;52.210;21.112;2023-04-06T05:36:45;11.55;;;6.32;;
50988;SDS011;37008;52.210;21.112;2023-04-06T05:39:10;39.38;;;8.75;;
50988;SDS011;37008;52.210;21.112;2023-04-06T05:41:37;15.80;;;6.28;;
50988;SDS011;37008;52.210;21.112;2023-04-06T05:44:02;10.07;;;4.72;;
50988;SDS011;37008;52.210;21.112;2023-04-06T05:46:28;12.95;;;6.38;;
50988;SDS011;37008;52.210;21.112;2023-04-06T05:48:54;11.63;;;6.25;;
50988;SDS011;37008;52.210;21.112;2023-04-06T05:51:20;12.02;;;5.35;;
50988;SDS011;37008;52.210;21.112;2023-04-06T05:53:46;12.75;;;5.75;;
50988;SDS011;37008;52.210;21.112;2023-04-06T05:56:11;16.75;;;5.43;;
50988;SDS011;37008;52.210;21.112;2023-04-06T05:58:37;8.30;;;4.70;;
50988;SDS011;37008;52.210;21.112;2023-04-06T06:01:02;8.23;;;5.32;;
50988;SDS011;37008;52.210;21.112;2023-04-06T06:03:29;13.38;;;5.85;;
50988;SDS011;37008;52.210;21.112;2023-04-06T06:05:59;10.75;;;5.65;;
50988;SDS011;37008;52.210;21.112;2023-04-06T06:08:29;15.95;;;4.95;;
50988;SDS011;37008;52.210;21.112;2023-04-06T06:10:55;6.63;;;3.60;;
50988;SDS011;37008;52.210;21.112;2023-04-06T06:13:21;6.25;;;3.20;;
50988;SDS011;37008;52.210;21.112;2023-04-06T06:15:48;16.75;;;4.88;;
50988;SDS011;37008;52.210;21.112;2023-04-06T06:18:13;15.07;;;4.80;;
50988;SDS011;37008;52.210;21.112;2023-04-06T06:20:39;23.25;;;5.38;;
50988;SDS011;37008;52.210;21.112;2023-04-06T06:23:05;12.60;;;4.55;;
50988;SDS011;37008;52.210;21.112;2023-04-06T06:25:30;8.75;;;4.90;;
50988;SDS011;37008;52.210;21.112;2023-04-06T06:27:57;10.05;;;4.20;;
50988;SDS011;37008;52.210;21.112;2023-04-06T06:30:23;14.77;;;4.18;;
50988;SDS011;37008;52.210;21.112;2023-04-06T06:32:49;14.80;;;4.35;;
50988;SDS011;37008;52.210;21.112;2023-04-06T06:35:15;9.50;;;3.05;;
50988;SDS011;37008;52.210;21.112;2023-04-06T06:37:41;7.93;;;3.38;;
50988;SDS011;37008;52.210;21.112;2023-04-06T06:40:08;13.80;;;4.10;;
50988;SDS011;37008;52.210;21.112;2023-04-06T06:42:34;6.38;;;2.85;;
50988;SDS011;37008;52.210;21.112;2023-04-06T06:45:00;11.90;;;4.13;;
50988;SDS011;37008;52.210;21.112;2023-04-06T06:47:25;7.60;;;3.00;;
50988;SDS011;37008;52.210;21.112;2023-04-06T06:49:51;5.68;;;3.03;;
50988;SDS011;37008;52.210;21.112;2023-04-06T06:52:17;7.93;;;2.78;;
50988;SDS011;37008;52.210;21.112;2023-04-06T06:54:42;8.48;;;3.75;;
50988;SDS011;37008;52.210;21.112;2023-04-06T06:57:08;8.20;;;2.95;;
50988;SDS011;37008;52.210;21.112;2023-04-06T06:59:34;9.95;;;2.28;;
50988;SDS011;37008;52.210;21.112;2023-04-06T07:01:59;8.98;;;3.22;;
50988;SDS011;37008;52.210;21.112;2023-04-06T07:04:25;14.77;;;3.70;;
50988;SDS011;37008;52.210;21.112;2023-04-06T07:06:51;7.43;;;2.95;;
50988;SDS011;37008;52.210;21.112;2023-04-06T07:09:17;11.00;;;3.05;;
50988;SDS011;37008;52.210;21.112;2023-04-06T07:11:43;6.57;;;3.03;;
50988;SDS011;37008;52.210;21.112;2023-04-06T07:14:09;5.68;;;3.13;;
50988;SDS011;37008;52.210;21.112;2023-04-06T07:16:36;6.10;;;3.10;;
50988;SDS011;37008;52.210;21.112;2023-04-06T07:19:02;5.38;;;3.10;;
50988;SDS011;37008;52.210;21.112;2023-04-06T07:21:28;4.85;;;2.58;;
50988;SDS011;37008;52.210;21.112;2023-04-06T07:23:53;5.45;;;3.40;;
50988;SDS011;37008;52.210;21.112;2023-04-06T07:26:19;6.20;;;2.20;;
50988;SDS011;37008;52.210;21.112;2023-04-06T07:28:45;7.60;;;2.97;;
50988;SDS011;37008;52.210;21.112;2023-04-06T07:31:10;4.68;;;2.38;;
50988;SDS011;37008;52.210;21.112;2023-04-06T07:33:36;6.32;;;2.90;;
50988;SDS011;37008;52.210;21.112;2023-04-06T07:36:02;14.85;;;3.60;;
50988;SDS011;37008;52.210;21.112;2023-04-06T07:38:27;6.78;;;2.33;;
50988;SDS011;37008;52.210;21.112;2023-04-06T07:40:53;8.80;;;2.53;;
50988;SDS011;37008;52.210;21.112;2023-04-06T07:43:19;13.15;;;3.42;;
50988;SDS011;37008;52.210;21.112;2023-04-06T07:45:44;7.65;;;3.17;;
50988;SDS011;37008;52.210;21.112;2023-04-06T07:48:10;7.07;;;3.13;;
50988;SDS011;37008;52.210;21.112;2023-04-06T07:50:36;11.20;;;3.70;;
50988;SDS011;37008;52.210;21.112;2023-04-06T07:53:02;10.75;;;3.95;;
50988;SDS011;37008;52.210;21.112;2023-04-06T07:55:27;4.05;;;2.22;;
50988;SDS011;37008;52.210;21.112;2023-04-06T07:57:53;4.32;;;2.70;;
50988;SDS011;37008;52.210;21.112;2023-04-06T08:00:19;8.25;;;2.42;;
50988;SDS011;37008;52.210;21.112;2023-04-06T08:02:45;8.68;;;2.95;;
50988;SDS011;37008;52.210;21.112;2023-04-06T08:05:11;6.68;;;3.42;;
50988;SDS011;37008;52.210;21.112;2023-04-06T08:07:37;10.05;;;3.60;;
50988;SDS011;37008;52.210;21.112;2023-04-06T08:10:03;6.18;;;2.60;;
50988;SDS011;37008;52.210;21.112;2023-04-06T08:12:29;6.93;;;2.78;;
50988;SDS011;37008;52.210;21.112;2023-04-06T08:14:54;7.93;;;2.88;;
50988;SDS011;37008;52.210;21.112;2023-04-06T08:17:21;6.18;;;2.80;;
50988;SDS011;37008;52.210;21.112;2023-04-06T08:19:47;4.03;;;2.40;;
50988;SDS011;37008;52.210;21.112;2023-04-06T08:22:12;5.90;;;3.10;;
50988;SDS011;37008;52.210;21.112;2023-04-06T08:24:38;8.82;;;3.67;;
50988;SDS011;37008;52.210;21.112;2023-04-06T08:27:04;5.55;;;1.73;;
50988;SDS011;37008;52.210;21.112;2023-04-06T08:29:29;7.03;;;2.53;;
50988;SDS011;37008;52.210;21.112;2023-04-06T08:31:55;9.73;;;3.75;;
50988;SDS011;37008;52.210;21.112;2023-04-06T08:34:21;4.63;;;2.80;;
50988;SDS011;37008;52.210;21.112;2023-04-06T08:36:47;6.68;;;3.67;;
50988;SDS011;37008;52.210;21.112;2023-04-06T08:39:13;7.32;;;3.33;;
50988;SDS011;37008;52.210;21.112;2023-04-06T08:41:41;5.22;;;2.47;;
50988;SDS011;37008;52.210;21.112;2023-04-06T08:44:07;8.82;;;3.53;;
50988;SDS011;37008;52.210;21.112;2023-04-06T08:46:33;6.18;;;2.83;;
50988;SDS011;37008;52.210;21.112;2023-04-06T08:48:59;5.72;;;3.60;;
50988;SDS011;37008;52.210;21.112;2023-04-06T08:51:28;7.25;;;2.67;;
50988;SDS011;37008;52.210;21.112;2023-04-06T08:53:56;13.02;;;4.00;;
50988;SDS011;37008;52.210;21.112;2023-04-06T08:56:24;9.75;;;4.20;;
50988;SDS011;37008;52.210;21.112;2023-04-06T08:58:50;7.18;;;3.33;;
50988;SDS011;37008;52.210;21.112;2023-04-06T09:01:20;6.38;;;3.65;;
50988;SDS011;37008;52.210;21.112;2023-04-06T09:03:46;8.55;;;3.60;;
50988;SDS011;37008;52.210;21.112;2023-04-06T09:06:14;11.75;;;3.92;;
50988;SDS011;37008;52.210;21.112;2023-04-06T09:08:40;9.07;;;3.65;;
50988;SDS011;37008;52.210;21.112;2023-04-06T09:11:06;7.15;;;3.95;;
50988;SDS011;37008;52.210;21.112;2023-04-06T09:13:52;6.90;;;3.30;;
50988;SDS011;37008;52.210;21.112;2023-04-06T09:16:20;9.38;;;3.90;;
50988;SDS011;37008;52.210;21.112;2023-04-06T09:18:46;5.32;;;3.05;;
50988;SDS011;37008;52.210;21.112;2023-04-06T09:21:12;5.22;;;3.75;;
50988;SDS011;37008;52.210;21.112;2023-04-06T09:23:38;5.32;;;3.20;;
50988;SDS011;37008;52.210;21.112;2023-04-06T09:26:14;5.57;;;3.25;;
50988;SDS011;37008;52.210;21.112;2023-04-06T09:28:48;4.55;;;2.80;;
50988;SDS011;37008;52.210;21.112;2023-04-06T09:31:24;9.40;;;3.92;;
50988;SDS011;37008;52.210;21.112;2023-04-06T09:33:51;9.95;;;4.10;;
50988;SDS011;37008;52.210;21.112;2023-04-06T09:36:17;8.02;;;4.00;;
50988;SDS011;37008;52.210;21.112;2023-04-06T09:41:30;7.95;;;3.78;;
50988;SDS011;37008;52.210;21.112;2023-04-06T09:44:07;11.52;;;4.60;;
50988;SDS011;37008;52.210;21.112;2023-04-06T09:46:35;6.07;;;3.83;;
50988;SDS011;37008;52.210;21.112;2023-04-06T09:49:04;4.53;;;3.10;;
50988;SDS011;37008;52.210;21.112;2023-04-06T09:51:33;7.80;;;4.50;;
50988;SDS011;37008;52.210;21.112;2023-04-06T09:54:05;7.32;;;4.30;;
50988;SDS011;37008;52.210;21.112;2023-04-06T09:56:51;6.72;;;3.95;;
50988;SDS011;37008;52.210;21.112;2023-04-06T10:02:08;4.38;;;1.98;;
50988;SDS011;37008;52.210;21.112;2023-04-06T10:05:11;7.70;;;3.60;;
50988;SDS011;37008;52.210;21.112;2023-04-06T10:07:43;7.68;;;4.60;;
50988;SDS011;37008;52.210;21.112;2023-04-06T10:10:11;12.50;;;4.55;;
50988;SDS011;37008;52.210;21.112;2023-04-06T10:12:39;9.95;;;4.60;;
50988;SDS011;37008;52.210;21.112;2023-04-06T10:15:07;6.57;;;4.10;;
50988;SDS011;37008;52.210;21.112;2023-04-06T10:17:33;10.30;;;5.22;;
50988;SDS011;37008;52.210;21.112;2023-04-06T10:20:01;10.02;;;4.63;;
50988;SDS011;37008;52.210;21.112;2023-04-06T10:22:40;9.05;;;4.55;;
50988;SDS011;37008;52.210;21.112;2023-04-06T10:25:25;8.90;;;4.82;;
50988;SDS011;37008;52.210;21.112;2023-04-06T10:27:58;10.27;;;4.68;;
50988;SDS011;37008;52.210;21.112;2023-04-06T10:30:30;10.65;;;4.97;;
50988;SDS011;37008;52.210;21.112;2023-04-06T10:32:56;9.73;;;4.47;;
50988;SDS011;37008;52.210;21.112;2023-04-06T10:35:21;9.52;;;4.60;;
50988;SDS011;37008;52.210;21.112;2023-04-06T10:37:52;7.07;;;4.10;;
50988;SDS011;37008;52.210;21.112;2023-04-06T10:40:25;4.88;;;3.20;;
50988;SDS011;37008;52.210;21.112;2023-04-06T10:42:52;6.35;;;3.47;;
50988;SDS011;37008;52.210;21.112;2023-04-06T10:45:31;10.25;;;4.70;;
50988;SDS011;37008;52.210;21.112;2023-04-06T10:47:57;11.73;;;6.35;;
50988;SDS011;37008;52.210;21.112;2023-04-06T10:50:23;6.70;;;4.40;;
50988;SDS011;37008;52.210;21.112;2023-04-06T10:53:03;9.13;;;5.00;;
50988;SDS011;37008;52.210;21.112;2023-04-06T10:55:29;7.22;;;4.55;;
50988;SDS011;37008;52.210;21.112;2023-04-06T10:57:56;6.15;;;3.90;;
50988;SDS011;37008;52.210;21.112;2023-04-06T11:00:21;8.77;;;4.82;;
50988;SDS011;37008;52.210;21.112;2023-04-06T11:02:47;7.78;;;4.72;;
50988;SDS011;37008;52.210;21.112;2023-04-06T11:05:14;5.95;;;4.13;;
50988;SDS011;37008;52.210;21.112;2023-04-06T11:07:40;7.13;;;4.38;;
50988;SDS011;37008;52.210;21.112;2023-04-06T11:10:06;9.00;;;4.97;;
50988;SDS011;37008;52.210;21.112;2023-04-06T11:12:33;9.23;;;4.70;;
50988;SDS011;37008;52.210;21.112;2023-04-06T11:15:00;9.77;;;4.68;;
50988;SDS011;37008;52.210;21.112;2023-04-06T11:17:33;8.18;;;4.80;;
50988;SDS011;37008;52.210;21.112;2023-04-06T11:20:01;8.30;;;5.00;;
50988;SDS011;37008;52.210;21.112;2023-04-06T11:22:27;7.88;;;5.10;;
50988;SDS011;37008;52.210;21.112;2023-04-06T11:25:04;8.85;;;5.00;;
50988;SDS011;37008;52.210;21.112;2023-04-06T11:27:36;11.68;;;4.32;;
50988;SDS011;37008;52.210;21.112;2023-04-06T11:30:02;8.45;;;4.38;;
50988;SDS011;37008;52.210;21.112;2023-04-06T11:32:29;8.35;;;5.00;;
50988;SDS011;37008;52.210;21.112;2023-04-06T11:34:54;9.45;;;4.93;;
50988;SDS011;37008;52.210;21.112;2023-04-06T11:37:25;8.20;;;4.75;;
50988;SDS011;37008;52.210;21.112;2023-04-06T11:39:52;10.27;;;5.60;;
50988;SDS011;37008;52.210;21.112;2023-04-06T11:42:25;10.05;;;5.47;;
50988;SDS011;37008;52.210;21.112;2023-04-06T11:44:55;9.07;;;5.10;;
50988;SDS011;37008;52.210;21.112;2023-04-06T11:47:29;8.15;;;4.65;;
50988;SDS011;37008;52.210;21.112;2023-04-06T11:49:55;9.82;;;5.80;;
50988;SDS011;37008;52.210;21.112;2023-04-06T11:52:30;8.35;;;5.22;;
50988;SDS011;37008;52.210;21.112;2023-04-06T11:54:56;8.23;;;4.95;;
50988;SDS011;37008;52.210;21.112;2023-04-06T11:57:22;6.95;;;4.57;;
50988;SDS011;37008;52.210;21.112;2023-04-06T11:59:50;8.82;;;4.18;;
50988;SDS011;37008;52.210;21.112;2023-04-06T12:02:16;5.97;;;3.85;;
50988;SDS011;37008;52.210;21.112;2023-04-06T12:04:42;6.28;;;3.92;;
50988;SDS011;37008;52.210;21.112;2023-04-06T12:07:08;10.30;;;4.97;;
50988;SDS011;37008;52.210;21.112;2023-04-06T12:09:34;5.05;;;3.45;;
50988;SDS011;37008;52.210;21.112;2023-04-06T12:12:00;8.38;;;4.45;;
50988;SDS011;37008;52.210;21.112;2023-04-06T12:14:26;6.55;;;4.55;;
50988;SDS011;37008;52.210;21.112;2023-04-06T12:16:52;7.18;;;3.58;;
50988;SDS011;37008;52.210;21.112;2023-04-06T12:19:18;11.18;;;5.07;;
50988;SDS011;37008;52.210;21.112;2023-04-06T12:21:43;6.53;;;3.83;;
50988;SDS011;37008;52.210;21.112;2023-04-06T12:24:09;13.18;;;5.05;;
50988;SDS011;37008;52.210;21.112;2023-04-06T12:26:34;7.70;;;3.40;;
50988;SDS011;37008;52.210;21.112;2023-04-06T12:29:02;6.85;;;4.18;;
50988;SDS011;37008;52.210;21.112;2023-04-06T12:31:32;7.60;;;3.92;;
50988;SDS011;37008;52.210;21.112;2023-04-06T12:33:59;7.35;;;4.70;;
50988;SDS011;37008;52.210;21.112;2023-04-06T12:36:27;6.32;;;3.90;;
50988;SDS011;37008;52.210;21.112;2023-04-06T12:38:52;6.05;;;3.33;;
50988;SDS011;37008;52.210;21.112;2023-04-06T12:41:18;7.68;;;4.88;;
50988;SDS011;37008;52.210;21.112;2023-04-06T12:43:44;7.55;;;4.68;;
50988;SDS011;37008;52.210;21.112;2023-04-06T12:46:10;7.30;;;4.60;;
50988;SDS011;37008;52.210;21.112;2023-04-06T12:48:36;7.65;;;4.50;;
50988;SDS011;37008;52.210;21.112;2023-04-06T12:51:05;12.60;;;4.97;;
50988;SDS011;37008;52.210;21.112;2023-04-06T12:53:32;5.35;;;3.95;;
50988;SDS011;37008;52.210;21.112;2023-04-06T12:55:58;6.35;;;4.22;;
50988;SDS011;37008;52.210;21.112;2023-04-06T12:58:25;9.30;;;5.20;;
50988;SDS011;37008;52.210;21.112;2023-04-06T13:00:55;7.40;;;4.75;;
50988;SDS011;37008;52.210;21.112;2023-04-06T13:03:22;7.72;;;5.18;;
50988;SDS011;37008;52.210;21.112;2023-04-06T13:05:49;8.07;;;4.68;;
50988;SDS011;37008;52.210;21.112;2023-04-06T13:08:15;8.95;;;5.47;;
50988;SDS011;37008;52.210;21.112;2023-04-06T13:10:52;9.07;;;4.43;;
50988;SDS011;37008;52.210;21.112;2023-04-06T13:13:21;8.20;;;5.40;;
50988;SDS011;37008;52.210;21.112;2023-04-06T13:15:52;5.82;;;3.95;;
50988;SDS011;37008;52.210;21.112;2023-04-06T13:18:26;8.63;;;4.88;;
50988;SDS011;37008;52.210;21.112;2023-04-06T13:20:51;10.68;;;5.82;;
50988;SDS011;37008;52.210;21.112;2023-04-06T13:23:17;8.75;;;5.72;;
50988;SDS011;37008;52.210;21.112;2023-04-06T13:25:43;11.32;;;5.25;;
50988;SDS011;37008;52.210;21.112;2023-04-06T13:28:08;7.88;;;5.43;;
50988;SDS011;37008;52.210;21.112;2023-04-06T13:30:36;9.45;;;4.90;;
50988;SDS011;37008;52.210;21.112;2023-04-06T13:33:02;10.75;;;5.90;;
50988;SDS011;37008;52.210;21.112;2023-04-06T13:35:27;8.32;;;5.22;;
50988;SDS011;37008;52.210;21.112;2023-04-06T13:37:53;8.82;;;5.63;;
50988;SDS011;37008;52.210;21.112;2023-04-06T13:40:19;11.05;;;6.78;;
50988;SDS011;37008;52.210;21.112;2023-04-06T13:42:46;10.98;;;6.20;;
50988;SDS011;37008;52.210;21.112;2023-04-06T13:45:12;11.63;;;4.85;;
50988;SDS011;37008;52.210;21.112;2023-04-06T13:47:38;6.85;;;3.90;;
50988;SDS011;37008;52.210;21.112;2023-04-06T13:50:04;9.85;;;6.00;;
50988;SDS011;37008;52.210;21.112;2023-04-06T13:52:30;10.48;;;6.35;;
50988;SDS011;37008;52.210;21.112;2023-04-06T13:54:56;8.45;;;5.53;;
50988;SDS011;37008;52.210;21.112;2023-04-06T13:57:21;8.90;;;5.60;;
50988;SDS011;37008;52.210;21.112;2023-04-06T13:59:47;6.85;;;4.38;;
50988;SDS011;37008;52.210;21.112;2023-04-06T14:02:14;7.60;;;5.63;;
50988;SDS011;37008;52.210;21.112;2023-04-06T14:04:40;8.55;;;5.65;;
50988;SDS011;37008;52.210;21.112;2023-04-06T14:07:05;11.90;;;5.13;;
50988;SDS011;37008;52.210;21.112;2023-04-06T14:09:32;10.10;;;5.22;;
50988;SDS011;37008;52.210;21.112;2023-04-06T14:11:58;5.93;;;4.07;;
50988;SDS011;37008;52.210;21.112;2023-04-06T14:14:24;8.27;;;5.18;;
50988;SDS011;37008;52.210;21.112;2023-04-06T14:16:50;10.43;;;5.20;;
50988;SDS011;37008;52.210;21.112;2023-04-06T14:19:16;7.43;;;3.55;;
50988;SDS011;37008;52.210;21.112;2023-04-06T14:21:43;7.93;;;4.60;;
50988;SDS011;37008;52.210;21.112;2023-04-06T14:24:09;8.70;;;5.22;;
50988;SDS011;37008;52.210;21.112;2023-04-06T14:26:36;8.88;;;4.95;;
50988;SDS011;37008;52.210;21.112;2023-04-06T14:29:02;6.43;;;3.95;;
50988;SDS011;37008;52.210;21.112;2023-04-06T14:31:29;9.82;;;6.13;;